sensor_id;sensor_type;location;lat;lon;timestamp;pressure;altitude;pressure_sealevel;temperature;humidity
72570;BME280;60594;50.204;8.844;2022-12-18T00:01:59;101420.50;;;-8.20;90.78
72570;BME280;60594;50.204;8.844;2022-12-18T00:04:26;101427.31;;;-8.28;91.72
72570;BME280;60594;50.204;8.844;2022-12-18T00:06:53;101431.63;;;-8.27;91.44
72570;BME280;60594;50.204;8.844;2022-12-18T00:09:20;101423.00;;;-8.27;91.16
72570;BME280;60594;50.204;8.844;2022-12-18T00:11:47;101419.59;;;-8.23;92.71
72570;BME280;60594;50.204;8.844;2022-12-18T00:14:14;101423.97;;;-8.18;91.14
72570;BME280;60594;50.204;8.844;2022-12-18T00:16:43;101417.00;;;-8.25;91.38
72570;BME280;60594;50.204;8.844;2022-12-18T00:19:10;101428.22;;;-8.24;91.96
72570;BME280;60594;50.204;8.844;2022-12-18T00:21:36;101423.78;;;-8.33;92.72
72570;BME280;60594;50.204;8.844;2022-12-18T00:24:03;101431.47;;;-8.36;92.29
72570;BME280;60594;50.204;8.844;2022-12-18T00:26:31;101414.13;;;-8.46;91.84
72570;BME280;60594;50.204;8.844;2022-12-18T00:29:12;101426.28;;;-8.39;90.50
72570;BME280;60594;50.204;8.844;2022-12-18T00:31:41;101426.25;;;-8.40;90.37
72570;BME280;60594;50.204;8.844;2022-12-18T00:34:10;101423.53;;;-8.48;92.20
72570;BME280;60594;50.204;8.844;2022-12-18T00:36:40;101410.31;;;-8.67;91.60
72570;BME280;60594;50.204;8.844;2022-12-18T00:39:07;101410.53;;;-8.52;92.65
72570;BME280;60594;50.204;8.844;2022-12-18T00:41:34;101404.69;;;-8.42;92.17
72570;BME280;60594;50.204;8.844;2022-12-18T00:44:19;101417.72;;;-8.36;91.36
72570;BME280;60594;50.204;8.844;2022-12-18T00:46:47;101425.34;;;-8.42;90.54
72570;BME280;60594;50.204;8.844;2022-12-18T00:49:16;101422.94;;;-8.33;89.49
72570;BME280;60594;50.204;8.844;2022-12-18T00:51:42;101421.16;;;-8.34;88.54
72570;BME280;60594;50.204;8.844;2022-12-18T00:54:09;101408.06;;;-8.46;88.89
72570;BME280;60594;50.204;8.844;2022-12-18T00:56:37;101422.72;;;-8.45;88.75
72570;BME280;60594;50.204;8.844;2022-12-18T00:59:04;101440.75;;;-8.50;89.67
72570;BME280;60594;50.204;8.844;2022-12-18T01:01:31;101433.59;;;-8.64;91.58
72570;BME280;60594;50.204;8.844;2022-12-18T01:04:00;101453.56;;;-8.56;92.91
72570;BME280;60594;50.204;8.844;2022-12-18T01:06:27;101431.91;;;-8.64;90.89
72570;BME280;60594;50.204;8.844;2022-12-18T01:08:53;101435.56;;;-8.51;91.17
72570;BME280;60594;50.204;8.844;2022-12-18T01:11:20;101434.47;;;-8.65;91.09
72570;BME280;60594;50.204;8.844;2022-12-18T01:13:48;101415.00;;;-8.96;92.43
72570;BME280;60594;50.204;8.844;2022-12-18T01:16:17;101423.72;;;-8.88;93.31
72570;BME280;60594;50.204;8.844;2022-12-18T01:18:44;101424.00;;;-8.71;94.31
72570;BME280;60594;50.204;8.844;2022-12-18T01:21:13;101436.34;;;-8.57;92.36
72570;BME280;60594;50.204;8.844;2022-12-18T01:23:39;101450.22;;;-8.50;90.56
72570;BME280;60594;50.204;8.844;2022-12-18T01:26:07;101454.59;;;-8.45;90.88
72570;BME280;60594;50.204;8.844;2022-12-18T01:28:36;101457.97;;;-8.50;89.89
72570;BME280;60594;50.204;8.844;2022-12-18T01:31:14;101463.56;;;-8.74;90.73
72570;BME280;60594;50.204;8.844;2022-12-18T01:33:40;101455.72;;;-8.81;91.95
72570;BME280;60594;50.204;8.844;2022-12-18T01:36:07;101441.78;;;-8.91;91.58
72570;BME280;60594;50.204;8.844;2022-12-18T01:38:34;101442.41;;;-9.02;92.09
72570;BME280;60594;50.204;8.844;2022-12-18T01:41:02;101458.84;;;-8.97;91.69
72570;BME280;60594;50.204;8.844;2022-12-18T01:43:43;101471.81;;;-8.94;91.39
72570;BME280;60594;50.204;8.844;2022-12-18T01:46:09;101476.06;;;-8.98;90.40
72570;BME280;60594;50.204;8.844;2022-12-18T01:48:36;101457.63;;;-9.17;92.02
72570;BME280;60594;50.204;8.844;2022-12-18T01:51:04;101454.28;;;-9.12;92.33
72570;BME280;60594;50.204;8.844;2022-12-18T01:53:32;101457.97;;;-8.99;91.57
72570;BME280;60594;50.204;8.844;2022-12-18T01:55:59;101455.97;;;-9.14;92.29
72570;BME280;60594;50.204;8.844;2022-12-18T01:58:39;101427.94;;;-9.40;93.16
72570;BME280;60594;50.204;8.844;2022-12-18T02:01:07;101444.53;;;-9.26;92.96
72570;BME280;60594;50.204;8.844;2022-12-18T02:03:34;101446.63;;;-9.06;90.58
72570;BME280;60594;50.204;8.844;2022-12-18T02:06:09;101442.53;;;-8.96;89.52
72570;BME280;60594;50.204;8.844;2022-12-18T02:08:55;101431.44;;;-8.91;90.67
72570;BME280;60594;50.204;8.844;2022-12-18T02:11:39;101443.78;;;-8.75;88.33
72570;BME280;60594;50.204;8.844;2022-12-18T02:14:37;101436.00;;;-8.76;87.50
72570;BME280;60594;50.204;8.844;2022-12-18T02:17:16;101430.88;;;-8.75;87.92
72570;BME280;60594;50.204;8.844;2022-12-18T02:22:46;101425.66;;;-8.76;88.92
72570;BME280;60594;50.204;8.844;2022-12-18T02:28:56;101431.84;;;-8.67;85.75
72570;BME280;60594;50.204;8.844;2022-12-18T02:31:32;101450.63;;;-8.75;85.99
72570;BME280;60594;50.204;8.844;2022-12-18T02:34:03;101441.75;;;-8.92;86.44
72570;BME280;60594;50.204;8.844;2022-12-18T02:36:39;101454.28;;;-9.12;87.43
72570;BME280;60594;50.204;8.844;2022-12-18T02:39:09;101430.84;;;-9.22;87.85
72570;BME280;60594;50.204;8.844;2022-12-18T02:41:40;101436.88;;;-9.22;88.60
72570;BME280;60594;50.204;8.844;2022-12-18T02:44:12;101429.34;;;-9.13;90.83
72570;BME280;60594;50.204;8.844;2022-12-18T02:46:42;101431.91;;;-9.11;89.06
72570;BME280;60594;50.204;8.844;2022-12-18T02:49:36;101447.47;;;-9.08;88.70
72570;BME280;60594;50.204;8.844;2022-12-18T02:52:24;101443.94;;;-9.13;89.26
72570;BME280;60594;50.204;8.844;2022-12-18T02:55:00;101448.16;;;-9.18;88.96
72570;BME280;60594;50.204;8.844;2022-12-18T03:00:27;101447.06;;;-9.31;89.66
72570;BME280;60594;50.204;8.844;2022-12-18T03:03:14;101449.63;;;-9.31;89.93
72570;BME280;60594;50.204;8.844;2022-12-18T03:05:51;101446.22;;;-9.28;90.74
72570;BME280;60594;50.204;8.844;2022-12-18T03:08:23;101443.75;;;-9.22;90.22
72570;BME280;60594;50.204;8.844;2022-12-18T03:10:57;101432.63;;;-9.21;89.60
72570;BME280;60594;50.204;8.844;2022-12-18T03:13:51;101442.19;;;-9.16;89.72
72570;BME280;60594;50.204;8.844;2022-12-18T03:16:25;101456.94;;;-9.09;88.20
72570;BME280;60594;50.204;8.844;2022-12-18T03:19:00;101456.13;;;-9.06;86.95
72570;BME280;60594;50.204;8.844;2022-12-18T03:21:41;101443.09;;;-9.12;87.50
72570;BME280;60594;50.204;8.844;2022-12-18T03:24:09;101437.91;;;-9.14;86.92
72570;BME280;60594;50.204;8.844;2022-12-18T03:26:40;101446.50;;;-9.15;86.37
72570;BME280;60594;50.204;8.844;2022-12-18T03:29:17;101450.75;;;-9.15;87.74
72570;BME280;60594;50.204;8.844;2022-12-18T03:31:51;101438.72;;;-9.16;88.28
72570;BME280;60594;50.204;8.844;2022-12-18T03:34:23;101422.22;;;-9.24;87.02
72570;BME280;60594;50.204;8.844;2022-12-18T03:36:53;101430.97;;;-9.16;87.76
72570;BME280;60594;50.204;8.844;2022-12-18T03:39:22;101429.25;;;-9.17;87.53
72570;BME280;60594;50.204;8.844;2022-12-18T03:42:14;101435.44;;;-9.08;87.04
72570;BME280;60594;50.204;8.844;2022-12-18T03:45:02;101434.63;;;-9.05;86.66
72570;BME280;60594;50.204;8.844;2022-12-18T03:50:17;101438.38;;;-9.34;88.21
72570;BME280;60594;50.204;8.844;2022-12-18T03:53:04;101441.22;;;-9.19;87.13
72570;BME280;60594;50.204;8.844;2022-12-18T03:55:34;101438.72;;;-9.16;85.57
72570;BME280;60594;50.204;8.844;2022-12-18T03:58:06;101433.56;;;-9.16;86.14
72570;BME280;60594;50.204;8.844;2022-12-18T04:00:45;101432.03;;;-9.50;86.61
72570;BME280;60594;50.204;8.844;2022-12-18T04:03:14;101433.06;;;-9.42;87.36
72570;BME280;60594;50.204;8.844;2022-12-18T04:05:48;101435.63;;;-9.43;87.52
72570;BME280;60594;50.204;8.844;2022-12-18T04:08:19;101441.34;;;-9.58;87.84
72570;BME280;60594;50.204;8.844;2022-12-18T04:10:54;101442.22;;;-9.57;87.70
72570;BME280;60594;50.204;8.844;2022-12-18T04:13:27;101437.25;;;-9.47;87.71
72570;BME280;60594;50.204;8.844;2022-12-18T04:15:55;101439.88;;;-9.45;87.02
72570;BME280;60594;50.204;8.844;2022-12-18T04:18:23;101443.88;;;-9.61;86.84
72570;BME280;60594;50.204;8.844;2022-12-18T04:20:49;101429.94;;;-9.69;86.53
72570;BME280;60594;50.204;8.844;2022-12-18T04:23:17;101434.19;;;-9.71;86.14
72570;BME280;60594;50.204;8.844;2022-12-18T04:25:43;101434.13;;;-9.74;86.72
72570;BME280;60594;50.204;8.844;2022-12-18T04:28:15;101427.25;;;-9.75;87.41
72570;BME280;60594;50.204;8.844;2022-12-18T04:30:42;101433.78;;;-10.30;89.18
72570;BME280;60594;50.204;8.844;2022-12-18T04:33:12;101440.34;;;-10.43;90.87
72570;BME280;60594;50.204;8.844;2022-12-18T04:35:39;101443.59;;;-10.50;91.55
72570;BME280;60594;50.204;8.844;2022-12-18T04:38:08;101427.16;;;-10.90;93.03
72570;BME280;60594;50.204;8.844;2022-12-18T04:40:37;101439.97;;;-10.93;94.39
72570;BME280;60594;50.204;8.844;2022-12-18T04:43:08;101433.28;;;-10.51;94.18
72570;BME280;60594;50.204;8.844;2022-12-18T04:45:35;101436.81;;;-10.48;93.62
72570;BME280;60594;50.204;8.844;2022-12-18T04:48:02;101430.03;;;-10.43;91.04
72570;BME280;60594;50.204;8.844;2022-12-18T04:50:28;101427.97;;;-10.59;91.28
72570;BME280;60594;50.204;8.844;2022-12-18T04:52:55;101435.50;;;-10.31;91.14
72570;BME280;60594;50.204;8.844;2022-12-18T04:55:21;101423.72;;;-10.18;90.98
72570;BME280;60594;50.204;8.844;2022-12-18T04:57:48;101411.69;;;-10.19;89.98
72570;BME280;60594;50.204;8.844;2022-12-18T05:00:15;101433.78;;;-9.90;88.33
72570;BME280;60594;50.204;8.844;2022-12-18T05:02:41;101427.56;;;-10.00;87.83
72570;BME280;60594;50.204;8.844;2022-12-18T05:05:08;101432.09;;;-9.90;86.41
72570;BME280;60594;50.204;8.844;2022-12-18T05:07:35;101424.44;;;-9.85;86.64
72570;BME280;60594;50.204;8.844;2022-12-18T05:10:01;101426.13;;;-9.87;87.73
72570;BME280;60594;50.204;8.844;2022-12-18T05:12:28;101420.75;;;-9.96;87.16
72570;BME280;60594;50.204;8.844;2022-12-18T05:14:54;101419.34;;;-9.82;87.20
72570;BME280;60594;50.204;8.844;2022-12-18T05:17:21;101431.78;;;-9.62;87.03
72570;BME280;60594;50.204;8.844;2022-12-18T05:19:47;101425.56;;;-9.73;86.51
72570;BME280;60594;50.204;8.844;2022-12-18T05:22:13;101446.31;;;-9.67;86.40
72570;BME280;60594;50.204;8.844;2022-12-18T05:24:40;101432.56;;;-9.66;86.01
72570;BME280;60594;50.204;8.844;2022-12-18T05:27:06;101445.47;;;-9.66;86.69
72570;BME280;60594;50.204;8.844;2022-12-18T05:29:33;101442.06;;;-10.06;85.63
72570;BME280;60594;50.204;8.844;2022-12-18T05:31:59;101450.34;;;-10.19;88.72
72570;BME280;60594;50.204;8.844;2022-12-18T05:34:25;101439.53;;;-10.40;88.75
72570;BME280;60594;50.204;8.844;2022-12-18T05:36:52;101448.44;;;-10.63;89.72
72570;BME280;60594;50.204;8.844;2022-12-18T05:39:18;101436.47;;;-10.61;89.71
72570;BME280;60594;50.204;8.844;2022-12-18T05:41:44;101430.25;;;-10.35;90.00
72570;BME280;60594;50.204;8.844;2022-12-18T05:44:11;101434.22;;;-10.11;88.88
72570;BME280;60594;50.204;8.844;2022-12-18T05:46:42;101432.88;;;-9.94;88.98
72570;BME280;60594;50.204;8.844;2022-12-18T05:49:08;101436.44;;;-9.87;86.65
72570;BME280;60594;50.204;8.844;2022-12-18T05:51:35;101422.59;;;-9.91;85.30
72570;BME280;60594;50.204;8.844;2022-12-18T05:54:01;101434.66;;;-9.90;84.50
72570;BME280;60594;50.204;8.844;2022-12-18T05:56:28;101431.16;;;-9.92;85.64
72570;BME280;60594;50.204;8.844;2022-12-18T05:58:54;101432.13;;;-9.88;84.57
72570;BME280;60594;50.204;8.844;2022-12-18T06:01:24;101442.09;;;-10.02;85.04
72570;BME280;60594;50.204;8.844;2022-12-18T06:03:50;101449.13;;;-9.95;85.79
72570;BME280;60594;50.204;8.844;2022-12-18T06:06:23;101449.31;;;-9.87;86.71
72570;BME280;60594;50.204;8.844;2022-12-18T06:08:50;101452.00;;;-9.81;86.96
72570;BME280;60594;50.204;8.844;2022-12-18T06:11:19;101451.19;;;-9.80;86.47
72570;BME280;60594;50.204;8.844;2022-12-18T06:13:46;101444.38;;;-9.77;86.47
72570;BME280;60594;50.204;8.844;2022-12-18T06:16:13;101451.38;;;-9.71;85.48
72570;BME280;60594;50.204;8.844;2022-12-18T06:18:39;101448.84;;;-9.68;86.73
72570;BME280;60594;50.204;8.844;2022-12-18T06:21:08;101443.59;;;-9.73;85.45
72570;BME280;60594;50.204;8.844;2022-12-18T06:23:34;101451.34;;;-9.73;85.44
72570;BME280;60594;50.204;8.844;2022-12-18T06:26:06;101448.38;;;-9.91;83.40
72570;BME280;60594;50.204;8.844;2022-12-18T06:28:33;101452.78;;;-9.85;84.46
72570;BME280;60594;50.204;8.844;2022-12-18T06:30:59;101447.16;;;-10.09;84.66
72570;BME280;60594;50.204;8.844;2022-12-18T06:33:27;101449.59;;;-10.51;85.57
72570;BME280;60594;50.204;8.844;2022-12-18T06:35:58;101452.81;;;-10.25;87.28
72570;BME280;60594;50.204;8.844;2022-12-18T06:38:25;101456.38;;;-10.19;87.68
72570;BME280;60594;50.204;8.844;2022-12-18T06:40:52;101454.66;;;-10.18;86.69
72570;BME280;60594;50.204;8.844;2022-12-18T06:43:18;101455.50;;;-10.19;87.60
72570;BME280;60594;50.204;8.844;2022-12-18T06:45:44;101453.75;;;-10.20;87.21
72570;BME280;60594;50.204;8.844;2022-12-18T06:48:12;101457.66;;;-9.99;87.73
72570;BME280;60594;50.204;8.844;2022-12-18T06:50:42;101451.91;;;-9.87;86.67
72570;BME280;60594;50.204;8.844;2022-12-18T06:53:08;101472.66;;;-9.80;85.94
72570;BME280;60594;50.204;8.844;2022-12-18T06:55:35;101476.19;;;-9.76;85.29
72570;BME280;60594;50.204;8.844;2022-12-18T06:58:01;101482.31;;;-9.71;83.88
72570;BME280;60594;50.204;8.844;2022-12-18T07:00:27;101484.78;;;-9.77;82.16
72570;BME280;60594;50.204;8.844;2022-12-18T07:02:53;101487.22;;;-9.83;82.25
72570;BME280;60594;50.204;8.844;2022-12-18T07:05:20;101485.41;;;-9.87;83.65
72570;BME280;60594;50.204;8.844;2022-12-18T07:07:46;101484.44;;;-9.91;83.50
72570;BME280;60594;50.204;8.844;2022-12-18T07:10:13;101486.03;;;-9.97;82.90
72570;BME280;60594;50.204;8.844;2022-12-18T07:12:39;101482.41;;;-10.07;84.35
72570;BME280;60594;50.204;8.844;2022-12-18T07:15:06;101490.91;;;-10.11;83.71
72570;BME280;60594;50.204;8.844;2022-12-18T07:17:33;101507.38;;;-10.03;82.61
72570;BME280;60594;50.204;8.844;2022-12-18T07:19:59;101488.19;;;-10.17;82.82
72570;BME280;60594;50.204;8.844;2022-12-18T07:22:25;101507.19;;;-10.13;83.41
72570;BME280;60594;50.204;8.844;2022-12-18T07:24:52;101507.06;;;-10.18;84.85
72570;BME280;60594;50.204;8.844;2022-12-18T07:27:18;101495.88;;;-10.18;85.06
72570;BME280;60594;50.204;8.844;2022-12-18T07:29:45;101502.06;;;-10.12;84.49
72570;BME280;60594;50.204;8.844;2022-12-18T07:32:11;101483.16;;;-10.12;86.29
72570;BME280;60594;50.204;8.844;2022-12-18T07:34:37;101474.28;;;-10.23;86.16
72570;BME280;60594;50.204;8.844;2022-12-18T07:37:04;101482.41;;;-10.07;86.50
72570;BME280;60594;50.204;8.844;2022-12-18T07:39:31;101484.34;;;-9.97;87.05
72570;BME280;60594;50.204;8.844;2022-12-18T07:41:57;101481.03;;;-9.91;86.99
72570;BME280;60594;50.204;8.844;2022-12-18T07:44:42;101497.59;;;-9.80;86.54
72570;BME280;60594;50.204;8.844;2022-12-18T07:47:08;101478.66;;;-9.81;84.93
72570;BME280;60594;50.204;8.844;2022-12-18T07:49:35;101501.28;;;-9.69;83.89
72570;BME280;60594;50.204;8.844;2022-12-18T07:52:01;101484.41;;;-9.94;83.96
72570;BME280;60594;50.204;8.844;2022-12-18T07:54:27;101481.47;;;-10.10;85.13
72570;BME280;60594;50.204;8.844;2022-12-18T07:56:54;101492.09;;;-9.95;86.04
72570;BME280;60594;50.204;8.844;2022-12-18T07:59:20;101491.19;;;-9.97;86.77
72570;BME280;60594;50.204;8.844;2022-12-18T08:01:46;101497.69;;;-10.14;86.37
72570;BME280;60594;50.204;8.844;2022-12-18T08:04:13;101478.00;;;-10.12;87.18
72570;BME280;60594;50.204;8.844;2022-12-18T08:06:39;101496.56;;;-9.88;87.43
72570;BME280;60594;50.204;8.844;2022-12-18T08:09:05;101498.56;;;-9.75;87.23
72570;BME280;60594;50.204;8.844;2022-12-18T08:11:32;101500.88;;;-9.87;85.39
72570;BME280;60594;50.204;8.844;2022-12-18T08:13:58;101499.38;;;-10.16;86.42
72570;BME280;60594;50.204;8.844;2022-12-18T08:16:25;101508.19;;;-10.76;89.97
72570;BME280;60594;50.204;8.844;2022-12-18T08:18:52;101504.88;;;-10.71;90.95
72570;BME280;60594;50.204;8.844;2022-12-18T08:21:25;101495.31;;;-10.42;91.67
72570;BME280;60594;50.204;8.844;2022-12-18T08:23:53;101490.75;;;-10.17;90.25
72570;BME280;60594;50.204;8.844;2022-12-18T08:26:20;101476.16;;;-10.53;89.74
72570;BME280;60594;50.204;8.844;2022-12-18T08:28:47;101481.97;;;-10.60;90.63
72570;BME280;60594;50.204;8.844;2022-12-18T08:31:14;101486.41;;;-10.55;91.59
72570;BME280;60594;50.204;8.844;2022-12-18T08:33:41;101491.31;;;-10.65;90.66
72570;BME280;60594;50.204;8.844;2022-12-18T08:36:09;101486.97;;;-10.66;91.81
72570;BME280;60594;50.204;8.844;2022-12-18T08:38:36;101487.47;;;-10.81;92.12
72570;BME280;60594;50.204;8.844;2022-12-18T08:41:08;101479.13;;;-11.03;93.63
72570;BME280;60594;50.204;8.844;2022-12-18T08:43:35;101479.59;;;-11.18;93.76
72570;BME280;60594;50.204;8.844;2022-12-18T08:46:21;101488.22;;;-11.18;94.83
72570;BME280;60594;50.204;8.844;2022-12-18T08:48:50;101493.31;;;-11.19;95.29
72570;BME280;60594;50.204;8.844;2022-12-18T08:51:17;101489.31;;;-11.08;96.22
72570;BME280;60594;50.204;8.844;2022-12-18T08:53:44;101484.44;;;-10.65;96.46
72570;BME280;60594;50.204;8.844;2022-12-18T08:56:13;101479.22;;;-10.34;93.40
72570;BME280;60594;50.204;8.844;2022-12-18T08:58:41;101478.31;;;-10.34;92.78
72570;BME280;60594;50.204;8.844;2022-12-18T09:01:09;101470.69;;;-10.31;92.85
72570;BME280;60594;50.204;8.844;2022-12-18T09:03:36;101470.13;;;-10.54;93.09
72570;BME280;60594;50.204;8.844;2022-12-18T09:06:03;101463.16;;;-10.58;94.05
72570;BME280;60594;50.204;8.844;2022-12-18T09:08:30;101478.56;;;-10.59;94.43
72570;BME280;60594;50.204;8.844;2022-12-18T09:10:56;101470.00;;;-10.60;94.63
72570;BME280;60594;50.204;8.844;2022-12-18T09:13:23;101470.44;;;-10.40;95.52
72570;BME280;60594;50.204;8.844;2022-12-18T09:15:52;101466.19;;;-10.01;95.34
72570;BME280;60594;50.204;8.844;2022-12-18T09:18:20;101470.41;;;-9.66;96.47
72570;BME280;60594;50.204;8.844;2022-12-18T09:20:47;101483.94;;;-9.33;95.87
72570;BME280;60594;50.204;8.844;2022-12-18T09:23:14;101486.50;;;-9.36;95.54
72570;BME280;60594;50.204;8.844;2022-12-18T09:25:40;101488.78;;;-9.51;94.21
72570;BME280;60594;50.204;8.844;2022-12-18T09:28:12;101495.31;;;-9.25;95.02
72570;BME280;60594;50.204;8.844;2022-12-18T09:30:44;101502.16;;;-9.27;93.19
72570;BME280;60594;50.204;8.844;2022-12-18T09:33:11;101498.06;;;-9.58;93.50
72570;BME280;60594;50.204;8.844;2022-12-18T09:35:38;101496.22;;;-9.63;94.16
72570;BME280;60594;50.204;8.844;2022-12-18T09:38:06;101506.69;;;-9.57;94.40
72570;BME280;60594;50.204;8.844;2022-12-18T09:40:41;101493.16;;;-9.47;94.78
72570;BME280;60594;50.204;8.844;2022-12-18T09:43:33;101503.34;;;-9.10;95.90
72570;BME280;60594;50.204;8.844;2022-12-18T09:46:07;101499.63;;;-8.81;95.67
72570;BME280;60594;50.204;8.844;2022-12-18T09:48:39;101500.97;;;-8.54;95.25
72570;BME280;60594;50.204;8.844;2022-12-18T09:51:21;101494.75;;;-8.10;93.64
72570;BME280;60594;50.204;8.844;2022-12-18T09:53:56;101488.66;;;-7.54;91.29
72570;BME280;60594;50.204;8.844;2022-12-18T09:56:28;101481.94;;;-7.41;89.52
72570;BME280;60594;50.204;8.844;2022-12-18T09:58:59;101479.56;;;-7.20;89.54
72570;BME280;60594;50.204;8.844;2022-12-18T10:01:27;101490.47;;;-6.70;89.99
72570;BME280;60594;50.204;8.844;2022-12-18T10:03:54;101477.75;;;-6.46;89.92
72570;BME280;60594;50.204;8.844;2022-12-18T10:06:52;101488.88;;;-6.58;87.74
72570;BME280;60594;50.204;8.844;2022-12-18T10:10:12;101475.78;;;-6.73;89.85
72570;BME280;60594;50.204;8.844;2022-12-18T10:13:37;101484.28;;;-6.83;90.82
72570;BME280;60594;50.204;8.844;2022-12-18T10:15:49;101480.09;;;-6.70;92.08
72570;BME280;60594;50.204;8.844;2022-12-18T10:18:46;101504.47;;;-6.52;91.58
72570;BME280;60594;50.204;8.844;2022-12-18T10:21:20;101506.09;;;-6.64;91.04
72570;BME280;60594;50.204;8.844;2022-12-18T10:24:04;101496.72;;;-6.50;92.40
72570;BME280;60594;50.204;8.844;2022-12-18T10:26:36;101495.25;;;-6.18;92.52
72570;BME280;60594;50.204;8.844;2022-12-18T10:29:11;101480.44;;;-6.33;90.39
72570;BME280;60594;50.204;8.844;2022-12-18T10:31:38;101472.69;;;-6.33;92.10
72570;BME280;60594;50.204;8.844;2022-12-18T10:34:09;101454.59;;;-6.22;92.05
72570;BME280;60594;50.204;8.844;2022-12-18T10:36:36;101475.53;;;-5.98;91.91
72570;BME280;60594;50.204;8.844;2022-12-18T10:41:42;101459.13;;;-5.93;92.10
72570;BME280;60594;50.204;8.844;2022-12-18T10:44:21;101466.00;;;-5.98;91.97
72570;BME280;60594;50.204;8.844;2022-12-18T10:46:50;101444.34;;;-6.04;91.92
72570;BME280;60594;50.204;8.844;2022-12-18T10:49:21;101453.91;;;-5.97;91.64
72570;BME280;60594;50.204;8.844;2022-12-18T10:51:49;101452.22;;;-5.94;91.07
72570;BME280;60594;50.204;8.844;2022-12-18T10:54:18;101467.81;;;-5.86;91.23
72570;BME280;60594;50.204;8.844;2022-12-18T10:56:45;101479.88;;;-5.96;91.44
72570;BME280;60594;50.204;8.844;2022-12-18T10:59:15;101462.63;;;-5.88;91.60
72570;BME280;60594;50.204;8.844;2022-12-18T11:01:55;101446.94;;;-6.06;92.81
72570;BME280;60594;50.204;8.844;2022-12-18T11:04:28;101466.09;;;-5.86;91.61
72570;BME280;60594;50.204;8.844;2022-12-18T11:09:25;101470.44;;;-5.76;91.92
72570;BME280;60594;50.204;8.844;2022-12-18T11:11:55;101450.53;;;-5.78;92.42
72570;BME280;60594;50.204;8.844;2022-12-18T11:14:24;101467.09;;;-5.58;91.50
72570;BME280;60594;50.204;8.844;2022-12-18T11:16:52;101458.53;;;-5.32;93.36
72570;BME280;60594;50.204;8.844;2022-12-18T11:19:34;101467.06;;;-5.63;90.13
72570;BME280;60594;50.204;8.844;2022-12-18T11:22:04;101457.53;;;-5.65;91.47
72570;BME280;60594;50.204;8.844;2022-12-18T11:24:56;101452.34;;;-5.59;92.70
72570;BME280;60594;50.204;8.844;2022-12-18T11:27:23;101457.59;;;-5.52;90.37
72570;BME280;60594;50.204;8.844;2022-12-18T11:29:50;101445.50;;;-5.44;91.65
72570;BME280;60594;50.204;8.844;2022-12-18T11:32:27;101448.09;;;-5.47;89.86
72570;BME280;60594;50.204;8.844;2022-12-18T11:35:32;101438.53;;;-5.52;90.46
72570;BME280;60594;50.204;8.844;2022-12-18T11:41:03;101442.75;;;-5.77;91.23
72570;BME280;60594;50.204;8.844;2022-12-18T11:43:38;101419.41;;;-5.81;92.72
72570;BME280;60594;50.204;8.844;2022-12-18T11:46:17;101429.00;;;-5.56;92.18
72570;BME280;60594;50.204;8.844;2022-12-18T11:49:03;101423.88;;;-5.47;92.21
72570;BME280;60594;50.204;8.844;2022-12-18T11:51:38;101416.13;;;-5.34;92.66
72570;BME280;60594;50.204;8.844;2022-12-18T11:54:12;101428.19;;;-5.39;90.96
72570;BME280;60594;50.204;8.844;2022-12-18T11:56:55;101428.22;;;-5.37;91.05
72570;BME280;60594;50.204;8.844;2022-12-18T11:59:52;101421.19;;;-5.59;90.05
72570;BME280;60594;50.204;8.844;2022-12-18T12:16:10;101420.38;;;-5.49;91.52
72570;BME280;60594;50.204;8.844;2022-12-18T12:18:59;101420.41;;;-5.46;91.69
72570;BME280;60594;50.204;8.844;2022-12-18T12:32:09;101432.56;;;-5.30;91.57
72570;BME280;60594;50.204;8.844;2022-12-18T12:40:06;101433.34;;;-5.52;92.30
72570;BME280;60594;50.204;8.844;2022-12-18T12:42:41;101423.84;;;-5.43;92.69
72570;BME280;60594;50.204;8.844;2022-12-18T12:45:36;101366.69;;;-5.59;92.40
72570;BME280;60594;50.204;8.844;2022-12-18T12:48:07;101404.84;;;-5.36;92.57
72570;BME280;60594;50.204;8.844;2022-12-18T12:50:40;101393.63;;;-5.24;92.57
72570;BME280;60594;50.204;8.844;2022-12-18T12:53:14;101397.13;;;-5.12;92.05
72570;BME280;60594;50.204;8.844;2022-12-18T13:02:19;101384.16;;;-5.00;92.76
72570;BME280;60594;50.204;8.844;2022-12-18T13:07:50;101385.88;;;-4.99;91.86
72570;BME280;60594;50.204;8.844;2022-12-18T13:12:56;101386.78;;;-4.92;92.13
72570;BME280;60594;50.204;8.844;2022-12-18T13:15:30;101384.19;;;-4.92;91.79
72570;BME280;60594;50.204;8.844;2022-12-18T13:18:20;101399.72;;;-5.07;92.67
72570;BME280;60594;50.204;8.844;2022-12-18T13:23:38;101394.56;;;-4.79;91.66
72570;BME280;60594;50.204;8.844;2022-12-18T13:33:44;101377.22;;;-4.38;91.22
72570;BME280;60594;50.204;8.844;2022-12-18T13:36:30;101369.41;;;-4.45;90.86
72570;BME280;60594;50.204;8.844;2022-12-18T13:41:42;101371.16;;;-4.32;90.57
72570;BME280;60594;50.204;8.844;2022-12-18T13:44:22;101369.41;;;-4.44;89.94
72570;BME280;60594;50.204;8.844;2022-12-18T13:46:53;101377.25;;;-4.53;90.25
72570;BME280;60594;50.204;8.844;2022-12-18T13:49:23;101378.13;;;-4.58;90.23
72570;BME280;60594;50.204;8.844;2022-12-18T13:51:54;101377.22;;;-4.36;90.22
72570;BME280;60594;50.204;8.844;2022-12-18T13:54:37;101377.19;;;-4.21;89.61
72570;BME280;60594;50.204;8.844;2022-12-18T13:57:32;101376.31;;;-4.16;89.80
72570;BME280;60594;50.204;8.844;2022-12-18T14:00:30;101364.19;;;-4.20;89.64
72570;BME280;60594;50.204;8.844;2022-12-18T14:02:58;101372.84;;;-4.21;90.21
72570;BME280;60594;50.204;8.844;2022-12-18T14:05:27;101373.72;;;-4.23;89.71
72570;BME280;60594;50.204;8.844;2022-12-18T14:08:11;101362.47;;;-4.27;90.31
72570;BME280;60594;50.204;8.844;2022-12-18T14:10:45;101361.59;;;-4.26;89.87
72570;BME280;60594;50.204;8.844;2022-12-18T14:13:27;101345.97;;;-4.26;89.94
72570;BME280;60594;50.204;8.844;2022-12-18T14:15:56;101332.97;;;-4.29;90.18
72570;BME280;60594;50.204;8.844;2022-12-18T14:18:34;101348.59;;;-4.17;89.68
72570;BME280;60594;50.204;8.844;2022-12-18T14:21:03;101351.19;;;-4.17;90.34
72570;BME280;60594;50.204;8.844;2022-12-18T14:26:23;101351.19;;;-4.17;89.99
72570;BME280;60594;50.204;8.844;2022-12-18T14:28:50;101345.97;;;-4.23;89.93